sensor_id;sensor_type;location;lat;lon;timestamp;P1;durP1;ratioP1;P2;durP2;ratioP2
8574;SDS011;4325;42.520;27.448;2023-06-14T00:01:06;2.63;;;2.03;;
8574;SDS011;4325;42.520;27.448;2023-06-14T00:03:34;4.37;;;2.47;;
8574;SDS011;4325;42.520;27.448;2023-06-14T00:06:01;3.00;;;2.30;;
8574;SDS011;4325;42.520;27.448;2023-06-14T00:08:29;2.37;;;2.10;;
8574;SDS011;4325;42.520;27.448;2023-06-14T00:10:56;3.87;;;2.50;;
8574;SDS011;4325;42.520;27.448;2023-06-14T00:13:23;2.83;;;2.30;;
8574;SDS011;4325;42.520;27.448;2023-06-14T00:15:50;2.90;;;2.30;;
8574;SDS011;4325;42.520;27.448;2023-06-14T00:18:20;2.30;;;1.97;;
8574;SDS011;4325;42.520;27.448;2023-06-14T00:20:49;2.43;;;1.97;;
8574;SDS011;4325;42.520;27.448;2023-06-14T00:23:17;3.90;;;2.83;;
8574;SDS011;4325;42.520;27.448;2023-06-14T00:25:45;6.93;;;2.83;;
8574;SDS011;4325;42.520;27.448;2023-06-14T00:28:12;4.53;;;3.20;;
8574;SDS011;4325;42.520;27.448;2023-06-14T00:30:39;3.60;;;2.40;;
8574;SDS011;4325;42.520;27.448;2023-06-14T00:33:06;3.97;;;2.93;;
8574;SDS011;4325;42.520;27.448;2023-06-14T00:35:33;4.77;;;3.27;;
8574;SDS011;4325;42.520;27.448;2023-06-14T00:38:00;4.13;;;3.47;;
8574;SDS011;4325;42.520;27.448;2023-06-14T00:40:27;4.40;;;3.40;;
8574;SDS011;4325;42.520;27.448;2023-06-14T00:42:55;6.20;;;3.77;;
8574;SDS011;4325;42.520;27.448;2023-06-14T00:45:22;6.17;;;4.63;;
8574;SDS011;4325;42.520;27.448;2023-06-14T00:47:49;7.03;;;4.40;;
8574;SDS011;4325;42.520;27.448;2023-06-14T00:50:20;11.57;;;5.27;;
8574;SDS011;4325;42.520;27.448;2023-06-14T00:52:48;10.43;;;5.87;;
8574;SDS011;4325;42.520;27.448;2023-06-14T00:55:15;10.00;;;5.60;;
8574;SDS011;4325;42.520;27.448;2023-06-14T00:57:43;14.23;;;6.67;;
8574;SDS011;4325;42.520;27.448;2023-06-14T01:00:13;11.93;;;6.50;;
8574;SDS011;4325;42.520;27.448;2023-06-14T01:02:40;10.53;;;6.77;;
8574;SDS011;4325;42.520;27.448;2023-06-14T01:05:07;8.10;;;5.47;;
8574;SDS011;4325;42.520;27.448;2023-06-14T01:07:40;15.50;;;5.23;;
8574;SDS011;4325;42.520;27.448;2023-06-14T01:10:21;6.97;;;5.03;;
8574;SDS011;4325;42.520;27.448;2023-06-14T01:12:58;10.43;;;4.50;;
8574;SDS011;4325;42.520;27.448;2023-06-14T01:15:33;8.37;;;4.70;;
8574;SDS011;4325;42.520;27.448;2023-06-14T01:18:01;10.47;;;4.47;;
8574;SDS011;4325;42.520;27.448;2023-06-14T01:20:31;7.53;;;4.03;;
8574;SDS011;4325;42.520;27.448;2023-06-14T01:23:03;6.50;;;4.40;;
8574;SDS011;4325;42.520;27.448;2023-06-14T01:25:30;7.17;;;4.50;;
8574;SDS011;4325;42.520;27.448;2023-06-14T01:27:58;5.07;;;3.93;;
8574;SDS011;4325;42.520;27.448;2023-06-14T01:30:27;8.87;;;4.30;;
8574;SDS011;4325;42.520;27.448;2023-06-14T01:32:58;8.03;;;5.57;;
8574;SDS011;4325;42.520;27.448;2023-06-14T01:35:26;8.60;;;5.00;;
8574;SDS011;4325;42.520;27.448;2023-06-14T01:37:52;11.87;;;4.93;;
8574;SDS011;4325;42.520;27.448;2023-06-14T01:40:21;7.63;;;5.10;;
8574;SDS011;4325;42.520;27.448;2023-06-14T01:42:50;11.33;;;5.00;;
8574;SDS011;4325;42.520;27.448;2023-06-14T01:45:18;6.87;;;4.60;;
8574;SDS011;4325;42.520;27.448;2023-06-14T01:47:46;7.13;;;4.40;;
8574;SDS011;4325;42.520;27.448;2023-06-14T01:50:13;5.83;;;3.90;;
8574;SDS011;4325;42.520;27.448;2023-06-14T01:52:40;4.77;;;3.80;;
8574;SDS011;4325;42.520;27.448;2023-06-14T01:55:08;6.00;;;3.57;;
8574;SDS011;4325;42.520;27.448;2023-06-14T01:57:36;9.83;;;3.77;;
8574;SDS011;4325;42.520;27.448;2023-06-14T02:00:04;5.90;;;3.33;;
8574;SDS011;4325;42.520;27.448;2023-06-14T02:02:37;13.53;;;4.20;;
8574;SDS011;4325;42.520;27.448;2023-06-14T02:05:04;7.40;;;4.17;;
8574;SDS011;4325;42.520;27.448;2023-06-14T02:07:31;5.97;;;3.60;;
8574;SDS011;4325;42.520;27.448;2023-06-14T02:09:58;7.00;;;4.47;;
8574;SDS011;4325;42.520;27.448;2023-06-14T02:12:25;6.10;;;4.13;;
8574;SDS011;4325;42.520;27.448;2023-06-14T02:14:54;6.93;;;3.33;;
8574;SDS011;4325;42.520;27.448;2023-06-14T02:17:21;4.80;;;3.43;;
8574;SDS011;4325;42.520;27.448;2023-06-14T02:19:48;6.43;;;3.97;;
8574;SDS011;4325;42.520;27.448;2023-06-14T02:22:15;4.30;;;3.67;;
8574;SDS011;4325;42.520;27.448;2023-06-14T02:24:43;6.80;;;4.33;;
8574;SDS011;4325;42.520;27.448;2023-06-14T02:27:10;5.07;;;3.70;;
8574;SDS011;4325;42.520;27.448;2023-06-14T02:29:37;8.00;;;4.57;;
8574;SDS011;4325;42.520;27.448;2023-06-14T02:32:06;5.77;;;4.20;;
8574;SDS011;4325;42.520;27.448;2023-06-14T02:34:33;10.80;;;4.80;;
8574;SDS011;4325;42.520;27.448;2023-06-14T02:37:00;8.10;;;5.13;;
8574;SDS011;4325;42.520;27.448;2023-06-14T02:39:28;17.63;;;5.53;;
8574;SDS011;4325;42.520;27.448;2023-06-14T02:41:54;10.17;;;5.57;;
8574;SDS011;4325;42.520;27.448;2023-06-14T02:44:23;9.30;;;4.80;;
8574;SDS011;4325;42.520;27.448;2023-06-14T02:46:52;14.07;;;5.43;;
8574;SDS011;4325;42.520;27.448;2023-06-14T02:49:21;8.30;;;4.80;;
8574;SDS011;4325;42.520;27.448;2023-06-14T02:51:48;4.83;;;3.47;;
8574;SDS011;4325;42.520;27.448;2023-06-14T02:54:14;4.50;;;3.60;;
8574;SDS011;4325;42.520;27.448;2023-06-14T02:56:41;6.60;;;3.67;;
8574;SDS011;4325;42.520;27.448;2023-06-14T02:59:08;4.73;;;3.73;;
8574;SDS011;4325;42.520;27.448;2023-06-14T03:01:36;5.03;;;3.20;;
8574;SDS011;4325;42.520;27.448;2023-06-14T03:04:06;5.70;;;3.97;;
8574;SDS011;4325;42.520;27.448;2023-06-14T03:06:35;4.90;;;3.73;;
8574;SDS011;4325;42.520;27.448;2023-06-14T03:09:02;7.93;;;5.20;;
8574;SDS011;4325;42.520;27.448;2023-06-14T03:11:30;7.80;;;4.63;;
8574;SDS011;4325;42.520;27.448;2023-06-14T03:13:57;7.23;;;4.80;;
8574;SDS011;4325;42.520;27.448;2023-06-14T03:16:24;9.23;;;5.20;;
8574;SDS011;4325;42.520;27.448;2023-06-14T03:18:54;6.93;;;4.37;;
8574;SDS011;4325;42.520;27.448;2023-06-14T03:21:21;7.47;;;5.03;;
8574;SDS011;4325;42.520;27.448;2023-06-14T03:23:49;8.07;;;4.60;;
8574;SDS011;4325;42.520;27.448;2023-06-14T03:26:16;9.73;;;6.33;;
8574;SDS011;4325;42.520;27.448;2023-06-14T03:28:44;10.80;;;6.47;;
8574;SDS011;4325;42.520;27.448;2023-06-14T03:31:11;7.00;;;5.73;;
8574;SDS011;4325;42.520;27.448;2023-06-14T03:33:38;8.67;;;5.77;;
8574;SDS011;4325;42.520;27.448;2023-06-14T03:36:05;13.23;;;7.13;;
8574;SDS011;4325;42.520;27.448;2023-06-14T03:38:33;7.77;;;5.30;;
8574;SDS011;4325;42.520;27.448;2023-06-14T03:41:01;6.17;;;3.10;;
8574;SDS011;4325;42.520;27.448;2023-06-14T03:43:28;4.73;;;3.17;;
8574;SDS011;4325;42.520;27.448;2023-06-14T03:45:55;6.40;;;2.90;;
8574;SDS011;4325;42.520;27.448;2023-06-14T03:48:22;4.10;;;3.20;;
8574;SDS011;4325;42.520;27.448;2023-06-14T03:50:49;2.23;;;1.97;;
8574;SDS011;4325;42.520;27.448;2023-06-14T03:53:16;2.87;;;2.47;;
8574;SDS011;4325;42.520;27.448;2023-06-14T03:55:45;3.93;;;2.57;;
8574;SDS011;4325;42.520;27.448;2023-06-14T03:58:15;7.60;;;3.60;;
8574;SDS011;4325;42.520;27.448;2023-06-14T04:00:41;4.73;;;3.40;;
8574;SDS011;4325;42.520;27.448;2023-06-14T04:03:08;5.17;;;4.20;;
8574;SDS011;4325;42.520;27.448;2023-06-14T04:05:35;9.90;;;7.33;;
8574;SDS011;4325;42.520;27.448;2023-06-14T04:08:02;10.80;;;8.03;;
8574;SDS011;4325;42.520;27.448;2023-06-14T04:10:29;14.80;;;9.17;;
8574;SDS011;4325;42.520;27.448;2023-06-14T04:12:56;9.30;;;6.90;;
8574;SDS011;4325;42.520;27.448;2023-06-14T04:15:24;9.77;;;6.93;;
8574;SDS011;4325;42.520;27.448;2023-06-14T04:17:53;9.20;;;6.27;;
8574;SDS011;4325;42.520;27.448;2023-06-14T04:20:22;8.33;;;5.17;;
8574;SDS011;4325;42.520;27.448;2023-06-14T04:22:50;5.83;;;4.87;;
8574;SDS011;4325;42.520;27.448;2023-06-14T04:25:17;4.67;;;3.70;;
8574;SDS011;4325;42.520;27.448;2023-06-14T04:27:44;3.67;;;3.30;;
8574;SDS011;4325;42.520;27.448;2023-06-14T04:30:12;11.57;;;3.97;;
8574;SDS011;4325;42.520;27.448;2023-06-14T04:32:40;10.07;;;3.30;;
8574;SDS011;4325;42.520;27.448;2023-06-14T04:35:07;7.13;;;4.07;;
8574;SDS011;4325;42.520;27.448;2023-06-14T04:37:35;6.70;;;4.13;;
8574;SDS011;4325;42.520;27.448;2023-06-14T04:40:05;5.63;;;3.23;;
8574;SDS011;4325;42.520;27.448;2023-06-14T04:42:33;3.37;;;2.70;;
8574;SDS011;4325;42.520;27.448;2023-06-14T04:45:02;3.80;;;2.90;;
8574;SDS011;4325;42.520;27.448;2023-06-14T04:47:29;3.90;;;2.90;;
8574;SDS011;4325;42.520;27.448;2023-06-14T04:49:58;3.90;;;2.80;;
8574;SDS011;4325;42.520;27.448;2023-06-14T04:52:25;6.83;;;3.00;;
8574;SDS011;4325;42.520;27.448;2023-06-14T04:54:54;3.07;;;2.47;;
8574;SDS011;4325;42.520;27.448;2023-06-14T04:57:21;3.40;;;2.97;;
8574;SDS011;4325;42.520;27.448;2023-06-14T04:59:50;3.63;;;3.13;;
8574;SDS011;4325;42.520;27.448;2023-06-14T05:02:20;2.97;;;2.37;;
8574;SDS011;4325;42.520;27.448;2023-06-14T05:04:48;3.27;;;2.50;;
8574;SDS011;4325;42.520;27.448;2023-06-14T05:07:16;3.33;;;2.83;;
8574;SDS011;4325;42.520;27.448;2023-06-14T05:09:44;2.80;;;2.50;;
8574;SDS011;4325;42.520;27.448;2023-06-14T05:12:11;9.17;;;3.20;;
8574;SDS011;4325;42.520;27.448;2023-06-14T05:14:38;3.30;;;3.00;;
8574;SDS011;4325;42.520;27.448;2023-06-14T05:17:05;3.10;;;2.20;;
8574;SDS011;4325;42.520;27.448;2023-06-14T05:19:32;2.60;;;2.23;;
8574;SDS011;4325;42.520;27.448;2023-06-14T05:21:59;3.43;;;2.17;;
8574;SDS011;4325;42.520;27.448;2023-06-14T05:24:29;2.40;;;2.20;;
8574;SDS011;4325;42.520;27.448;2023-06-14T05:26:57;2.87;;;2.00;;
8574;SDS011;4325;42.520;27.448;2023-06-14T05:29:24;2.40;;;2.20;;
8574;SDS011;4325;42.520;27.448;2023-06-14T05:31:51;2.60;;;2.30;;
8574;SDS011;4325;42.520;27.448;2023-06-14T05:34:18;3.67;;;1.90;;
8574;SDS011;4325;42.520;27.448;2023-06-14T05:36:44;7.57;;;3.40;;
8574;SDS011;4325;42.520;27.448;2023-06-14T05:39:11;3.47;;;2.60;;
8574;SDS011;4325;42.520;27.448;2023-06-14T05:41:40;3.63;;;3.07;;
8574;SDS011;4325;42.520;27.448;2023-06-14T05:44:07;8.53;;;3.23;;
8574;SDS011;4325;42.520;27.448;2023-06-14T05:46:35;6.27;;;3.40;;
8574;SDS011;4325;42.520;27.448;2023-06-14T05:49:02;5.37;;;2.93;;
8574;SDS011;4325;42.520;27.448;2023-06-14T05:51:28;3.40;;;2.60;;
8574;SDS011;4325;42.520;27.448;2023-06-14T05:53:55;3.03;;;2.73;;
8574;SDS011;4325;42.520;27.448;2023-06-14T05:56:22;3.07;;;2.70;;
8574;SDS011;4325;42.520;27.448;2023-06-14T05:58:52;2.90;;;2.53;;
8574;SDS011;4325;42.520;27.448;2023-06-14T06:01:18;3.37;;;2.90;;
8574;SDS011;4325;42.520;27.448;2023-06-14T06:03:45;4.73;;;3.10;;
8574;SDS011;4325;42.520;27.448;2023-06-14T06:06:13;4.33;;;2.53;;
8574;SDS011;4325;42.520;27.448;2023-06-14T06:08:40;3.47;;;2.87;;
8574;SDS011;4325;42.520;27.448;2023-06-14T06:11:07;2.83;;;2.63;;
8574;SDS011;4325;42.520;27.448;2023-06-14T06:13:34;4.57;;;3.37;;
8574;SDS011;4325;42.520;27.448;2023-06-14T06:16:03;3.50;;;3.07;;
8574;SDS011;4325;42.520;27.448;2023-06-14T06:18:31;3.63;;;3.30;;
8574;SDS011;4325;42.520;27.448;2023-06-14T06:20:57;5.60;;;3.73;;
8574;SDS011;4325;42.520;27.448;2023-06-14T06:23:24;6.23;;;4.17;;
8574;SDS011;4325;42.520;27.448;2023-06-14T06:25:51;4.33;;;3.50;;
8574;SDS011;4325;42.520;27.448;2023-06-14T06:28:18;5.17;;;3.40;;
8574;SDS011;4325;42.520;27.448;2023-06-14T06:30:45;4.13;;;3.37;;
8574;SDS011;4325;42.520;27.448;2023-06-14T06:33:13;3.27;;;2.97;;
8574;SDS011;4325;42.520;27.448;2023-06-14T06:35:40;2.80;;;2.60;;
8574;SDS011;4325;42.520;27.448;2023-06-14T06:38:08;3.33;;;2.47;;
8574;SDS011;4325;42.520;27.448;2023-06-14T06:40:35;3.07;;;2.60;;
8574;SDS011;4325;42.520;27.448;2023-06-14T06:43:02;3.37;;;2.90;;
8574;SDS011;4325;42.520;27.448;2023-06-14T06:45:29;3.60;;;2.70;;
8574;SDS011;4325;42.520;27.448;2023-06-14T06:47:56;3.43;;;2.63;;
8574;SDS011;4325;42.520;27.448;2023-06-14T06:50:24;2.70;;;2.50;;
8574;SDS011;4325;42.520;27.448;2023-06-14T06:52:51;3.00;;;2.37;;
8574;SDS011;4325;42.520;27.448;2023-06-14T06:55:18;8.43;;;3.37;;
8574;SDS011;4325;42.520;27.448;2023-06-14T06:57:45;3.07;;;2.80;;
8574;SDS011;4325;42.520;27.448;2023-06-14T07:00:12;4.23;;;3.10;;
8574;SDS011;4325;42.520;27.448;2023-06-14T07:02:39;3.77;;;2.77;;
8574;SDS011;4325;42.520;27.448;2023-06-14T07:05:06;4.40;;;3.20;;
8574;SDS011;4325;42.520;27.448;2023-06-14T07:07:35;4.23;;;2.93;;
8574;SDS011;4325;42.520;27.448;2023-06-14T07:10:02;3.13;;;2.83;;
8574;SDS011;4325;42.520;27.448;2023-06-14T07:12:30;2.87;;;2.60;;
8574;SDS011;4325;42.520;27.448;2023-06-14T07:14:58;2.70;;;2.50;;
8574;SDS011;4325;42.520;27.448;2023-06-14T07:17:26;4.10;;;2.73;;
8574;SDS011;4325;42.520;27.448;2023-06-14T07:19:53;3.20;;;2.77;;
8574;SDS011;4325;42.520;27.448;2023-06-14T07:22:20;2.63;;;2.43;;
8574;SDS011;4325;42.520;27.448;2023-06-14T07:24:48;4.23;;;3.00;;
8574;SDS011;4325;42.520;27.448;2023-06-14T07:27:16;4.10;;;2.40;;
8574;SDS011;4325;42.520;27.448;2023-06-14T07:29:44;3.40;;;2.43;;
8574;SDS011;4325;42.520;27.448;2023-06-14T07:32:11;2.57;;;2.37;;
8574;SDS011;4325;42.520;27.448;2023-06-14T07:34:39;3.53;;;2.70;;
8574;SDS011;4325;42.520;27.448;2023-06-14T07:37:23;3.00;;;2.53;;
8574;SDS011;4325;42.520;27.448;2023-06-14T07:39:52;2.50;;;2.30;;
8574;SDS011;4325;42.520;27.448;2023-06-14T07:42:18;2.07;;;1.77;;
8574;SDS011;4325;42.520;27.448;2023-06-14T07:44:46;2.37;;;2.17;;
8574;SDS011;4325;42.520;27.448;2023-06-14T07:47:12;6.90;;;2.50;;
8574;SDS011;4325;42.520;27.448;2023-06-14T07:49:39;2.83;;;2.63;;
8574;SDS011;4325;42.520;27.448;2023-06-14T07:52:06;2.73;;;2.53;;
8574;SDS011;4325;42.520;27.448;2023-06-14T07:54:33;4.33;;;2.93;;
8574;SDS011;4325;42.520;27.448;2023-06-14T07:57:02;2.83;;;2.53;;
8574;SDS011;4325;42.520;27.448;2023-06-14T07:59:29;2.43;;;2.23;;
8574;SDS011;4325;42.520;27.448;2023-06-14T08:01:56;2.60;;;2.40;;
8574;SDS011;4325;42.520;27.448;2023-06-14T08:04:23;3.40;;;2.87;;
8574;SDS011;4325;42.520;27.448;2023-06-14T08:06:50;3.23;;;2.70;;
8574;SDS011;4325;42.520;27.448;2023-06-14T08:09:17;2.33;;;2.20;;
8574;SDS011;4325;42.520;27.448;2023-06-14T08:11:45;3.30;;;2.73;;
8574;SDS011;4325;42.520;27.448;2023-06-14T08:14:13;3.13;;;2.80;;
8574;SDS011;4325;42.520;27.448;2023-06-14T08:16:40;2.63;;;2.20;;
8574;SDS011;4325;42.520;27.448;2023-06-14T08:19:07;3.27;;;2.67;;
8574;SDS011;4325;42.520;27.448;2023-06-14T08:21:35;2.30;;;2.20;;
8574;SDS011;4325;42.520;27.448;2023-06-14T08:24:02;2.43;;;2.23;;
8574;SDS011;4325;42.520;27.448;2023-06-14T08:26:30;3.50;;;2.30;;
8574;SDS011;4325;42.520;27.448;2023-06-14T08:28:57;2.40;;;2.20;;
8574;SDS011;4325;42.520;27.448;2023-06-14T08:31:26;3.83;;;2.47;;
8574;SDS011;4325;42.520;27.448;2023-06-14T08:33:53;2.37;;;2.17;;
8574;SDS011;4325;42.520;27.448;2023-06-14T08:36:20;2.87;;;2.50;;
8574;SDS011;4325;42.520;27.448;2023-06-14T08:38:48;2.57;;;2.17;;
8574;SDS011;4325;42.520;27.448;2023-06-14T08:41:17;2.50;;;2.20;;
8574;SDS011;4325;42.520;27.448;2023-06-14T08:43:48;2.33;;;2.13;;
8574;SDS011;4325;42.520;27.448;2023-06-14T08:46:17;2.30;;;2.10;;
8574;SDS011;4325;42.520;27.448;2023-06-14T08:48:47;2.40;;;2.20;;
8574;SDS011;4325;42.520;27.448;2023-06-14T08:51:16;3.70;;;2.40;;
8574;SDS011;4325;42.520;27.448;2023-06-14T08:53:48;2.77;;;2.43;;
8574;SDS011;4325;42.520;27.448;2023-06-14T08:56:19;3.07;;;2.77;;
8574;SDS011;4325;42.520;27.448;2023-06-14T08:58:47;2.60;;;2.40;;
8574;SDS011;4325;42.520;27.448;2023-06-14T09:01:15;4.40;;;2.13;;
8574;SDS011;4325;42.520;27.448;2023-06-14T09:03:42;2.80;;;2.50;;
8574;SDS011;4325;42.520;27.448;2023-06-14T09:06:11;2.67;;;2.43;;
8574;SDS011;4325;42.520;27.448;2023-06-14T09:08:40;2.43;;;2.20;;
8574;SDS011;4325;42.520;27.448;2023-06-14T09:11:10;2.53;;;2.33;;
8574;SDS011;4325;42.520;27.448;2023-06-14T09:13:55;2.47;;;2.28;;
8574;SDS011;4325;42.520;27.448;2023-06-14T09:16:22;2.78;;;2.17;;
8574;SDS011;4325;42.520;27.448;2023-06-14T09:18:49;8.32;;;2.92;;
8574;SDS011;4325;42.520;27.448;2023-06-14T09:21:17;4.97;;;2.97;;
8574;SDS011;4325;42.520;27.448;2023-06-14T09:23:46;3.13;;;2.63;;
8574;SDS011;4325;42.520;27.448;2023-06-14T09:26:14;2.90;;;2.60;;
8574;SDS011;4325;42.520;27.448;2023-06-14T09:28:42;5.30;;;2.47;;
8574;SDS011;4325;42.520;27.448;2023-06-14T09:31:10;4.38;;;2.53;;
8574;SDS011;4325;42.520;27.448;2023-06-14T09:33:38;3.45;;;3.15;;
8574;SDS011;4325;42.520;27.448;2023-06-14T09:36:06;4.15;;;2.83;;
8574;SDS011;4325;42.520;27.448;2023-06-14T09:38:38;3.30;;;2.78;;
8574;SDS011;4325;42.520;27.448;2023-06-14T09:41:06;4.30;;;3.30;;
8574;SDS011;4325;42.520;27.448;2023-06-14T09:43:33;4.25;;;3.45;;
8574;SDS011;4325;42.520;27.448;2023-06-14T09:46:00;5.65;;;3.22;;
8574;SDS011;4325;42.520;27.448;2023-06-14T09:48:27;6.57;;;3.33;;
8574;SDS011;4325;42.520;27.448;2023-06-14T09:50:55;4.18;;;3.30;;
8574;SDS011;4325;42.520;27.448;2023-06-14T09:53:24;3.78;;;2.97;;
8574;SDS011;4325;42.520;27.448;2023-06-14T09:55:54;4.75;;;3.15;;
8574;SDS011;4325;42.520;27.448;2023-06-14T09:58:23;4.22;;;3.63;;
8574;SDS011;4325;42.520;27.448;2023-06-14T10:00:54;3.65;;;3.13;;
8574;SDS011;4325;42.520;27.448;2023-06-14T10:03:24;5.13;;;3.30;;
8574;SDS011;4325;42.520;27.448;2023-06-14T10:05:55;4.72;;;3.45;;
8574;SDS011;4325;42.520;27.448;2023-06-14T10:08:27;5.25;;;3.30;;
8574;SDS011;4325;42.520;27.448;2023-06-14T10:10:59;5.18;;;3.65;;
8574;SDS011;4325;42.520;27.448;2023-06-14T10:13:26;5.13;;;3.25;;
8574;SDS011;4325;42.520;27.448;2023-06-14T10:15:59;4.72;;;3.33;;
8574;SDS011;4325;42.520;27.448;2023-06-14T10:18:34;6.07;;;3.83;;
8574;SDS011;4325;42.520;27.448;2023-06-14T10:21:13;6.35;;;3.50;;
8574;SDS011;4325;42.520;27.448;2023-06-14T10:23:45;10.38;;;3.83;;
8574;SDS011;4325;42.520;27.448;2023-06-14T10:26:22;5.80;;;3.33;;
8574;SDS011;4325;42.520;27.448;2023-06-14T10:28:56;10.82;;;4.22;;
8574;SDS011;4325;42.520;27.448;2023-06-14T10:31:42;6.72;;;3.55;;
8574;SDS011;4325;42.520;27.448;2023-06-14T10:34:10;7.75;;;3.47;;
8574;SDS011;4325;42.520;27.448;2023-06-14T10:36:40;7.85;;;3.75;;
8574;SDS011;4325;42.520;27.448;2023-06-14T10:39:10;8.50;;;3.78;;
8574;SDS011;4325;42.520;27.448;2023-06-14T10:41:50;8.18;;;4.07;;
8574;SDS011;4325;42.520;27.448;2023-06-14T10:47:09;7.07;;;3.70;;
8574;SDS011;4325;42.520;27.448;2023-06-14T10:49:50;8.15;;;3.75;;
8574;SDS011;4325;42.520;27.448;2023-06-14T10:52:20;6.13;;;3.05;;
8574;SDS011;4325;42.520;27.448;2023-06-14T10:55:02;9.95;;;4.10;;
8574;SDS011;4325;42.520;27.448;2023-06-14T10:57:32;9.85;;;4.00;;
8574;SDS011;4325;42.520;27.448;2023-06-14T11:00:00;11.90;;;4.45;;
8574;SDS011;4325;42.520;27.448;2023-06-14T11:02:48;10.77;;;3.97;;
8574;SDS011;4325;42.520;27.448;2023-06-14T11:05:23;10.07;;;4.13;;
8574;SDS011;4325;42.520;27.448;2023-06-14T11:07:57;8.45;;;3.17;;
8574;SDS011;4325;42.520;27.448;2023-06-14T11:10:37;9.75;;;3.80;;
8574;SDS011;4325;42.520;27.448;2023-06-14T11:13:06;9.02;;;3.65;;
8574;SDS011;4325;42.520;27.448;2023-06-14T11:15:34;6.15;;;3.42;;
8574;SDS011;4325;42.520;27.448;2023-06-14T11:18:02;6.13;;;3.63;;
8574;SDS011;4325;42.520;27.448;2023-06-14T11:20:31;5.05;;;3.38;;
8574;SDS011;4325;42.520;27.448;2023-06-14T11:23:00;5.78;;;3.67;;
8574;SDS011;4325;42.520;27.448;2023-06-14T11:25:28;5.95;;;3.90;;
8574;SDS011;4325;42.520;27.448;2023-06-14T11:27:55;7.93;;;3.95;;
8574;SDS011;4325;42.520;27.448;2023-06-14T11:30:25;5.75;;;3.47;;
8574;SDS011;4325;42.520;27.448;2023-06-14T11:32:53;8.27;;;4.65;;
8574;SDS011;4325;42.520;27.448;2023-06-14T11:35:21;6.25;;;3.60;;
8574;SDS011;4325;42.520;27.448;2023-06-14T11:37:50;5.15;;;3.35;;
8574;SDS011;4325;42.520;27.448;2023-06-14T11:40:20;5.20;;;3.53;;
8574;SDS011;4325;42.520;27.448;2023-06-14T11:42:50;7.18;;;4.47;;
8574;SDS011;4325;42.520;27.448;2023-06-14T11:45:25;9.55;;;4.85;;
8574;SDS011;4325;42.520;27.448;2023-06-14T11:47:54;7.35;;;4.05;;
8574;SDS011;4325;42.520;27.448;2023-06-14T11:50:21;7.57;;;3.72;;
8574;SDS011;4325;42.520;27.448;2023-06-14T11:52:52;8.30;;;4.00;;
8574;SDS011;4325;42.520;27.448;2023-06-14T11:55:19;10.00;;;3.97;;
8574;SDS011;4325;42.520;27.448;2023-06-14T11:57:47;8.60;;;3.80;;
8574;SDS011;4325;42.520;27.448;2023-06-14T12:00:14;6.68;;;3.38;;
8574;SDS011;4325;42.520;27.448;2023-06-14T12:02:51;6.53;;;3.40;;
8574;SDS011;4325;42.520;27.448;2023-06-14T12:05:23;7.90;;;3.72;;
8574;SDS011;4325;42.520;27.448;2023-06-14T12:07:57;8.27;;;4.25;;
8574;SDS011;4325;42.520;27.448;2023-06-14T12:10:25;7.68;;;4.18;;
8574;SDS011;4325;42.520;27.448;2023-06-14T12:12:56;4.88;;;4.07;;
8574;SDS011;4325;42.520;27.448;2023-06-14T12:15:23;5.05;;;3.78;;
8574;SDS011;4325;42.520;27.448;2023-06-14T12:17:52;4.15;;;3.35;;
8574;SDS011;4325;42.520;27.448;2023-06-14T12:20:20;4.40;;;3.30;;
8574;SDS011;4325;42.520;27.448;2023-06-14T12:22:50;7.88;;;4.57;;
8574;SDS011;4325;42.520;27.448;2023-06-14T12:25:25;7.03;;;3.58;;
8574;SDS011;4325;42.520;27.448;2023-06-14T12:27:53;8.93;;;4.03;;
8574;SDS011;4325;42.520;27.448;2023-06-14T12:30:21;8.82;;;3.97;;
8574;SDS011;4325;42.520;27.448;2023-06-14T12:32:48;5.95;;;3.25;;
8574;SDS011;4325;42.520;27.448;2023-06-14T12:35:17;5.40;;;3.28;;
8574;SDS011;4325;42.520;27.448;2023-06-14T12:37:45;5.13;;;3.28;;
8574;SDS011;4325;42.520;27.448;2023-06-14T12:40:12;5.60;;;3.55;;
8574;SDS011;4325;42.520;27.448;2023-06-14T12:42:39;7.15;;;4.20;;
8574;SDS011;4325;42.520;27.448;2023-06-14T12:45:06;5.35;;;3.60;;
8574;SDS011;4325;42.520;27.448;2023-06-14T12:47:34;5.20;;;3.15;;
8574;SDS011;4325;42.520;27.448;2023-06-14T12:50:01;4.43;;;3.13;;
8574;SDS011;4325;42.520;27.448;2023-06-14T12:52:30;3.67;;;2.90;;
8574;SDS011;4325;42.520;27.448;2023-06-14T12:54:57;2.17;;;2.05;;
8574;SDS011;4325;42.520;27.448;2023-06-14T12:57:23;5.97;;;2.70;;
8574;SDS011;4325;42.520;27.448;2023-06-14T12:59:50;2.80;;;2.47;;
8574;SDS011;4325;42.520;27.448;2023-06-14T13:02:18;3.50;;;2.63;;
8574;SDS011;4325;42.520;27.448;2023-06-14T13:04:47;3.50;;;3.00;;
8574;SDS011;4325;42.520;27.448;2023-06-14T13:07:14;3.03;;;2.77;;
8574;SDS011;4325;42.520;27.448;2023-06-14T13:09:42;3.63;;;2.80;;
8574;SDS011;4325;42.520;27.448;2023-06-14T13:12:10;3.07;;;2.80;;
8574;SDS011;4325;42.520;27.448;2023-06-14T13:14:38;3.47;;;2.87;;
8574;SDS011;4325;42.520;27.448;2023-06-14T13:17:05;3.23;;;2.93;;
8574;SDS011;4325;42.520;27.448;2023-06-14T13:19:32;5.57;;;2.77;;
8574;SDS011;4325;42.520;27.448;2023-06-14T13:22:00;2.97;;;2.77;;
8574;SDS011;4325;42.520;27.448;2023-06-14T13:24:27;4.30;;;2.60;;
8574;SDS011;4325;42.520;27.448;2023-06-14T13:26:56;3.40;;;2.50;;
8574;SDS011;4325;42.520;27.448;2023-06-14T13:29:23;3.37;;;2.93;;
8574;SDS011;4325;42.520;27.448;2023-06-14T13:31:51;6.57;;;3.50;;
8574;SDS011;4325;42.520;27.448;2023-06-14T13:34:18;6.47;;;3.80;;
8574;SDS011;4325;42.520;27.448;2023-06-14T13:36:46;5.20;;;3.30;;
8574;SDS011;4325;42.520;27.448;2023-06-14T13:39:12;4.60;;;2.90;;
8574;SDS011;4325;42.520;27.448;2023-06-14T13:41:39;2.73;;;2.53;;
8574;SDS011;4325;42.520;27.448;2023-06-14T13:44:08;4.50;;;2.93;;
8574;SDS011;4325;42.520;27.448;2023-06-14T13:46:36;4.07;;;2.90;;
8574;SDS011;4325;42.520;27.448;2023-06-14T13:49:03;8.50;;;3.30;;
8574;SDS011;4325;42.520;27.448;2023-06-14T13:51:30;4.73;;;3.17;;
8574;SDS011;4325;42.520;27.448;2023-06-14T13:53:57;4.40;;;2.70;;
8574;SDS011;4325;42.520;27.448;2023-06-14T13:56:24;4.73;;;3.27;;
8574;SDS011;4325;42.520;27.448;2023-06-14T13:58:51;3.73;;;3.33;;
8574;SDS011;4325;42.520;27.448;2023-06-14T14:01:19;4.60;;;3.50;;
8574;SDS011;4325;42.520;27.448;2023-06-14T14:03:46;4.10;;;3.70;;
8574;SDS011;4325;42.520;27.448;2023-06-14T14:06:15;3.53;;;3.23;;
8574;SDS011;4325;42.520;27.448;2023-06-14T14:08:42;3.40;;;3.07;;
8574;SDS011;4325;42.520;27.448;2023-06-14T14:11:10;8.15;;;3.17;;
8574;SDS011;4325;42.520;27.448;2023-06-14T14:13:37;4.55;;;3.92;;
8574;SDS011;4325;42.520;27.448;2023-06-14T14:16:05;5.55;;;4.15;;
8574;SDS011;4325;42.520;27.448;2023-06-14T14:18:33;8.35;;;4.40;;
8574;SDS011;4325;42.520;27.448;2023-06-14T14:21:01;3.85;;;3.35;;
8574;SDS011;4325;42.520;27.448;2023-06-14T14:23:28;4.83;;;3.40;;
8574;SDS011;4325;42.520;27.448;2023-06-14T14:25:55;3.07;;;2.47;;
8574;SDS011;4325;42.520;27.448;2023-06-14T14:28:22;4.30;;;3.57;;
8574;SDS011;4325;42.520;27.448;2023-06-14T14:30:49;4.07;;;3.13;;
8574;SDS011;4325;42.520;27.448;2023-06-14T14:33:16;4.00;;;3.33;;
8574;SDS011;4325;42.520;27.448;2023-06-14T14:35:44;3.17;;;2.87;;
8574;SDS011;4325;42.520;27.448;2023-06-14T14:38:12;2.80;;;2.60;;
8574;SDS011;4325;42.520;27.448;2023-06-14T14:40:39;3.80;;;3.30;;
8574;SDS011;4325;42.520;27.448;2023-06-14T14:43:06;3.47;;;3.13;;
8574;SDS011;4325;42.520;27.448;2023-06-14T14:45:33;4.57;;;3.07;;
8574;SDS011;4325;42.520;27.448;2023-06-14T14:48:00;3.30;;;3.00;;
8574;SDS011;4325;42.520;27.448;2023-06-14T14:50:28;2.87;;;2.57;;
8574;SDS011;4325;42.520;27.448;2023-06-14T14:52:57;3.50;;;3.20;;
8574;SDS011;4325;42.520;27.448;2023-06-14T14:55:23;2.83;;;2.63;;
8574;SDS011;4325;42.520;27.448;2023-06-14T14:57:50;2.77;;;2.57;;
8574;SDS011;4325;42.520;27.448;2023-06-14T15:00:18;3.70;;;3.20;;
8574;SDS011;4325;42.520;27.448;2023-06-14T15:02:45;5.17;;;2.77;;
8574;SDS011;4325;42.520;27.448;2023-06-14T15:05:11;3.10;;;2.80;;
8574;SDS011;4325;42.520;27.448;2023-06-14T15:07:38;3.43;;;3.13;;
8574;SDS011;4325;42.520;27.448;2023-06-14T15:10:07;2.90;;;2.70;;